createdAt,value
2022-08-20T00:02:10.371Z,20.48
2022-08-20T00:04:39.448Z,21.35
2022-08-20T00:07:06.922Z,23.48
2022-08-20T00:09:36.474Z,20.75
2022-08-20T00:12:07.502Z,21.40
2022-08-20T00:14:35.330Z,20.78
2022-08-20T00:17:03.069Z,20.33
2022-08-20T00:19:29.929Z,21.05
2022-08-20T00:21:58.543Z,20.79
2022-08-20T00:24:26.225Z,21.17
2022-08-20T00:26:53.330Z,20.17
2022-08-20T00:29:20.737Z,22.00
2022-08-20T00:31:50.537Z,20.72
2022-08-20T00:34:17.610Z,20.09
2022-08-20T00:36:44.643Z,21.35
2022-08-20T00:39:11.372Z,20.91
2022-08-20T00:41:38.537Z,20.73
2022-08-20T00:44:18.669Z,21.04
2022-08-20T00:46:46.517Z,22.38
2022-08-20T00:49:20.193Z,21.39
2022-08-20T00:51:53.038Z,19.61
2022-08-20T00:54:29.761Z,20.28
2022-08-20T00:57:08.691Z,23.12
2022-08-20T00:59:40.036Z,20.62
2022-08-20T01:02:11.716Z,21.76
2022-08-20T01:04:39.131Z,20.22
2022-08-20T01:07:07.550Z,22.66
2022-08-20T01:09:57.615Z,22.27
2022-08-20T01:12:25.219Z,20.76
2022-08-20T01:14:52.136Z,20.55
2022-08-20T01:17:23.766Z,22.29
2022-08-20T01:19:59.398Z,21.44
2022-08-20T01:23:04.847Z,19.78
2022-08-20T01:25:37.814Z,22.62
2022-08-20T01:28:05.279Z,21.89
2022-08-20T01:30:33.915Z,22.71
2022-08-20T01:33:02.347Z,21.32
2022-08-20T01:35:29.461Z,22.11
2022-08-20T01:37:56.487Z,21.81
2022-08-20T01:40:48.331Z,22.60
2022-08-20T01:43:15.884Z,21.93
2022-08-20T01:45:44.946Z,21.98
2022-08-20T01:48:15.635Z,22.77
2022-08-20T01:50:49.802Z,21.53
2022-08-20T01:53:30.399Z,20.99
2022-08-20T01:55:57.175Z,22.48
2022-08-20T01:58:23.950Z,23.28
2022-08-20T02:00:50.987Z,20.72
2022-08-20T02:03:17.730Z,21.09
2022-08-20T02:05:45.201Z,21.04
2022-08-20T02:08:12.019Z,21.10
2022-08-20T02:10:38.821Z,21.27
2022-08-20T02:13:05.953Z,22.33
2022-08-20T02:15:37.194Z,23.85
2022-08-20T02:18:10.528Z,21.53
2022-08-20T02:20:39.319Z,21.19
2022-08-20T02:23:09.978Z,22.53
2022-08-20T02:25:40.306Z,21.55
2022-08-20T02:28:10.650Z,22.34
2022-08-20T02:30:42.281Z,21.24
2022-08-20T02:33:12.159Z,21.84
2022-08-20T02:35:41.207Z,22.76
2022-08-20T02:38:08.311Z,21.98
2022-08-20T02:40:36.058Z,22.86
2022-08-20T02:43:04.566Z,22.34
2022-08-20T02:45:42.799Z,23.10
2022-08-20T02:48:20.914Z,23.37
2022-08-20T02:50:53.295Z,23.54
2022-08-20T02:53:20.474Z,21.40
2022-08-20T02:55:47.403Z,21.44
2022-08-20T02:58:15.041Z,23.06
2022-08-20T03:00:42.122Z,24.27
2022-08-20T03:03:11.046Z,23.93
2022-08-20T03:05:40.331Z,21.67
2022-08-20T03:08:10.014Z,23.37
2022-08-20T03:10:38.405Z,21.80
2022-08-20T03:13:05.961Z,22.48
2022-08-20T03:15:34.170Z,21.40
2022-08-20T03:18:01.463Z,23.35
2022-08-20T03:20:29.463Z,21.80
2022-08-20T03:22:57.462Z,22.96
2022-08-20T03:25:24.928Z,21.12
2022-08-20T03:27:54.805Z,21.38
2022-08-20T03:30:23.811Z,24.52
2022-08-20T03:32:50.745Z,22.60
2022-08-20T03:35:19.234Z,22.38
2022-08-20T03:37:48.438Z,23.02
2022-08-20T03:40:24.177Z,22.55
2022-08-20T03:42:52.694Z,24.05
2022-08-20T03:45:21.248Z,22.44
2022-08-20T03:47:49.307Z,23.25
2022-08-20T03:50:23.022Z,22.81
2022-08-20T03:52:51.145Z,21.25
2022-08-20T03:55:18.083Z,21.89
2022-08-20T03:57:50.606Z,23.30
2022-08-20T04:00:25.338Z,21.95
2022-08-20T04:02:52.098Z,24.03
2022-08-20T04:05:19.091Z,24.49
2022-08-20T04:07:45.890Z,23.11
2022-08-20T04:10:13.175Z,23.72
2022-08-20T04:12:41.997Z,25.11
2022-08-20T04:15:19.459Z,22.13
2022-08-20T04:17:50.194Z,23.97
2022-08-20T04:20:23.072Z,24.27
2022-08-20T04:22:59.458Z,24.06
2022-08-20T04:25:29.602Z,22.71
2022-08-20T04:28:00.923Z,24.74
2022-08-20T04:30:28.306Z,22.31
2022-08-20T04:32:56.271Z,22.87
2022-08-20T04:35:24.722Z,22.69
2022-08-20T04:38:03.512Z,24.16
2022-08-20T04:40:49.371Z,24.39
2022-08-20T04:43:16.306Z,23.01
2022-08-20T04:45:44.813Z,22.58
2022-08-20T04:48:14.918Z,21.09
2022-08-20T04:50:44.746Z,21.24
2022-08-20T04:53:13.666Z,24.15
2022-08-20T04:55:43.104Z,23.46
2022-08-20T04:58:38.065Z,23.08
2022-08-20T05:01:10.799Z,23.27
2022-08-20T05:03:39.357Z,23.70
2022-08-20T05:06:08.986Z,23.08
2022-08-20T05:08:38.438Z,22.43
2022-08-20T05:11:34.973Z,22.59
2022-08-20T05:13:53.954Z,24.30
2022-08-20T05:16:21.858Z,23.70
2022-08-20T05:18:52.158Z,21.53
2022-08-20T05:21:21.278Z,21.60
2022-08-20T05:23:49.374Z,24.17
2022-08-20T05:26:17.079Z,23.12
2022-08-20T05:28:52.772Z,25.68
2022-08-20T05:31:32.294Z,23.83
2022-08-20T05:34:10.291Z,21.05
2022-08-20T05:36:40.178Z,24.55
2022-08-20T05:39:08.884Z,23.32
2022-08-20T05:41:36.378Z,23.92
2022-08-20T05:44:04.388Z,24.48
2022-08-20T05:46:32.023Z,23.51
2022-08-20T05:49:01.623Z,21.91
2022-08-20T05:51:29.802Z,21.46
2022-08-20T05:53:59.133Z,23.33
2022-08-20T05:56:26.914Z,25.21
2022-08-20T05:58:55.318Z,23.82
2022-08-20T06:01:22.438Z,24.00
2022-08-20T06:04:07.550Z,24.72
2022-08-20T06:06:45.596Z,23.46
2022-08-20T06:09:15.734Z,24.35
2022-08-20T06:11:42.685Z,25.72
2022-08-20T06:14:10.028Z,24.17
2022-08-20T06:16:37.611Z,25.20
2022-08-20T06:19:05.431Z,24.36
2022-08-20T06:21:32.301Z,24.80
2022-08-20T06:24:01.531Z,22.85
2022-08-20T06:26:30.288Z,24.31
2022-08-20T06:29:02.407Z,25.66
2022-08-20T06:31:29.316Z,24.53
2022-08-20T06:33:56.435Z,26.78
2022-08-20T06:36:23.365Z,25.12
2022-08-20T06:38:50.183Z,25.28
2022-08-20T06:41:17.371Z,25.63
2022-08-20T06:43:44.138Z,22.53
2022-08-20T06:46:11.016Z,25.33
2022-08-20T06:48:38.214Z,25.11
2022-08-20T06:51:06.794Z,23.95
2022-08-20T06:53:33.907Z,23.85
2022-08-20T06:56:00.953Z,23.95
2022-08-20T06:58:37.159Z,23.61
2022-08-20T07:01:11.411Z,24.46
2022-08-20T07:03:55.706Z,24.98
2022-08-20T07:06:25.996Z,25.11
2022-08-20T07:08:54.142Z,25.19
2022-08-20T07:11:26.657Z,25.58
2022-08-20T07:13:56.830Z,23.32
2022-08-20T07:16:24.031Z,26.32
2022-08-20T07:18:50.813Z,25.72
2022-08-20T07:21:17.651Z,26.10
2022-08-20T07:23:44.519Z,23.93
2022-08-20T07:26:12.960Z,23.31
2022-08-20T07:28:39.827Z,23.99
2022-08-20T07:31:25.224Z,25.36
2022-08-20T07:33:53.918Z,25.68
2022-08-20T07:36:20.784Z,24.24
2022-08-20T07:38:48.257Z,25.93
2022-08-20T07:41:15.307Z,25.39
2022-08-20T07:43:45.912Z,24.73
2022-08-20T07:46:15.754Z,25.27
2022-08-20T07:48:49.724Z,25.87
2022-08-20T07:51:19.235Z,25.25
2022-08-20T07:53:47.485Z,25.72
2022-08-20T07:56:21.394Z,26.47
2022-08-20T07:58:53.320Z,25.88
2022-08-20T08:01:29.666Z,28.44
2022-08-20T08:03:57.848Z,27.44
2022-08-20T08:06:29.990Z,26.67
2022-08-20T08:09:24.082Z,25.85
2022-08-20T08:11:51.069Z,27.85
2022-08-20T08:14:26.767Z,25.60
2022-08-20T08:16:58.558Z,25.72
2022-08-20T08:19:28.745Z,24.21
2022-08-20T08:21:58.719Z,25.95
2022-08-20T08:24:28.478Z,22.92
2022-08-20T08:26:55.640Z,24.18
2022-08-20T08:29:27.631Z,25.17
2022-08-20T08:31:54.455Z,28.20
2022-08-20T08:34:22.378Z,27.42
2022-08-20T08:36:50.973Z,27.06
2022-08-20T08:39:18.797Z,26.12
2022-08-20T08:41:49.999Z,25.71
2022-08-20T08:44:27.900Z,25.76
2022-08-20T08:46:59.350Z,26.42
2022-08-20T08:49:37.863Z,24.91
2022-08-20T08:52:11.743Z,24.54
2022-08-20T08:54:45.974Z,24.53
2022-08-20T08:57:13.003Z,25.89
2022-08-20T08:59:47.420Z,25.36
2022-08-20T09:02:31.054Z,25.83
2022-08-20T09:05:01.913Z,26.02
2022-08-20T09:07:33.119Z,26.12
2022-08-20T09:10:02.430Z,24.69
2022-08-20T09:12:29.450Z,26.57
2022-08-20T09:14:56.629Z,26.35
2022-08-20T09:17:24.103Z,25.31
2022-08-20T09:19:52.364Z,27.10
2022-08-20T09:22:22.429Z,25.00
2022-08-20T09:24:50.499Z,23.34
2022-08-20T09:27:18.454Z,25.91
2022-08-20T09:29:46.183Z,25.63
2022-08-20T09:32:24.519Z,25.39
2022-08-20T09:34:59.345Z,25.52
2022-08-20T09:37:33.603Z,24.25
2022-08-20T09:40:04.999Z,24.39
2022-08-20T09:42:40.250Z,24.81
2022-08-20T09:45:10.964Z,24.99
2022-08-20T09:47:48.734Z,25.18
2022-08-20T09:50:25.127Z,24.35
2022-08-20T09:52:54.438Z,24.58
2022-08-20T09:55:24.903Z,26.54
2022-08-20T09:57:52.250Z,28.21
2022-08-20T10:00:20.172Z,26.27
2022-08-20T10:02:47.855Z,25.70
2022-08-20T10:05:14.957Z,26.20
2022-08-20T10:07:42.558Z,27.40
2022-08-20T10:10:12.210Z,26.25
2022-08-20T10:12:39.344Z,26.89
2022-08-20T10:15:06.889Z,25.27
2022-08-20T10:17:38.812Z,23.33
2022-08-20T10:20:06.815Z,24.87
2022-08-20T10:22:34.234Z,25.72
2022-08-20T10:25:01.159Z,28.39
2022-08-20T10:27:27.991Z,27.29
2022-08-20T10:29:55.072Z,25.77
2022-08-20T10:32:21.830Z,26.82
2022-08-20T10:34:49.332Z,26.59
2022-08-20T10:37:18.991Z,27.60
2022-08-20T10:39:46.325Z,28.58
2022-08-20T10:42:13.869Z,26.75
2022-08-20T10:44:40.816Z,26.42
2022-08-20T10:47:34.038Z,28.58
2022-08-20T10:50:04.289Z,29.22
2022-08-20T10:52:31.124Z,28.62
2022-08-20T10:54:58.221Z,29.36
2022-08-20T10:57:28.758Z,28.39
2022-08-20T10:59:57.417Z,28.48
2022-08-20T11:02:25.555Z,27.91
2022-08-20T11:04:53.355Z,26.16
2022-08-20T11:07:50.757Z,27.23
2022-08-20T11:10:24.007Z,27.35
2022-08-20T11:12:50.932Z,27.13
2022-08-20T11:15:18.164Z,26.02
2022-08-20T11:17:46.026Z,27.55
2022-08-20T11:20:15.360Z,29.14
2022-08-20T11:22:42.165Z,29.44
2022-08-20T11:25:09.477Z,29.45
2022-08-20T11:27:39.748Z,29.10
2022-08-20T11:30:10.389Z,26.08
2022-08-20T11:32:37.525Z,27.86
2022-08-20T11:35:19.203Z,27.31
2022-08-20T11:37:54.224Z,28.70
2022-08-20T11:40:21.895Z,28.69
2022-08-20T11:43:13.113Z,29.18
2022-08-20T11:45:37.685Z,27.74
2022-08-20T11:48:05.674Z,27.04
2022-08-20T11:50:32.577Z,26.32
2022-08-20T11:53:01.088Z,28.71
2022-08-20T11:55:30.534Z,27.93
2022-08-20T11:57:59.923Z,26.14
2022-08-20T12:00:32.801Z,27.36
2022-08-20T12:03:02.440Z,28.87
2022-08-20T12:05:32.418Z,28.68
2022-08-20T12:08:01.522Z,28.01
2022-08-20T12:10:29.816Z,27.62
2022-08-20T12:12:57.098Z,25.44
2022-08-20T12:15:26.738Z,27.57
2022-08-20T12:17:54.126Z,25.86
2022-08-20T12:20:21.147Z,28.47
2022-08-20T12:22:47.960Z,29.04
2022-08-20T12:25:15.507Z,27.66
2022-08-20T12:27:42.830Z,28.52
2022-08-20T12:30:13.307Z,29.36
2022-08-20T12:32:41.250Z,28.35
2022-08-20T12:35:09.288Z,29.45
2022-08-20T12:37:36.919Z,25.85
2022-08-20T12:40:08.198Z,26.66
2022-08-20T12:42:35.190Z,27.26
2022-08-20T12:45:01.986Z,29.70
2022-08-20T12:47:32.180Z,28.07
2022-08-20T12:50:08.086Z,30.77
2022-08-20T12:52:35.255Z,29.25
2022-08-20T12:55:04.006Z,29.65
2022-08-20T12:57:59.513Z,27.98
2022-08-20T13:00:38.519Z,27.65
2022-08-20T13:03:07.194Z,26.99
2022-08-20T13:05:35.481Z,27.78
2022-08-20T13:08:03.123Z,28.76
2022-08-20T13:10:34.059Z,28.39
2022-08-20T13:13:04.990Z,29.79
2022-08-20T13:15:32.936Z,29.04
2022-08-20T13:18:02.002Z,30.01
2022-08-20T13:20:31.743Z,28.49
2022-08-20T13:23:03.699Z,30.83
2022-08-20T13:25:31.562Z,28.99
2022-08-20T13:28:00.377Z,28.46
2022-08-20T13:30:27.740Z,28.71
2022-08-20T13:32:54.645Z,28.53
2022-08-20T13:35:21.811Z,29.29
2022-08-20T13:37:49.720Z,28.43
2022-08-20T13:40:17.428Z,28.30
2022-08-20T13:42:44.297Z,28.15
2022-08-20T13:45:11.475Z,28.47
2022-08-20T13:47:39.803Z,27.36
2022-08-20T13:50:15.517Z,27.91
2022-08-20T13:52:43.030Z,25.44
2022-08-20T13:55:11.937Z,25.16
2022-08-20T13:57:38.913Z,26.65
2022-08-20T14:00:10.675Z,28.02
2022-08-20T14:02:37.674Z,28.83
2022-08-20T14:05:04.713Z,30.63
2022-08-20T14:07:32.932Z,27.48
2022-08-20T14:10:02.915Z,28.40
2022-08-20T14:12:30.622Z,28.23
2022-08-20T14:14:57.798Z,28.18
2022-08-20T14:17:30.882Z,27.73
2022-08-20T14:20:07.090Z,27.75
2022-08-20T14:22:36.626Z,27.61
2022-08-20T14:25:08.420Z,28.30
2022-08-20T14:27:36.225Z,27.16
2022-08-20T14:30:11.944Z,29.04
2022-08-20T14:32:38.922Z,29.50
2022-08-20T14:35:06.939Z,29.04
2022-08-20T14:37:38.170Z,28.07
2022-08-20T14:40:09.286Z,28.25
2022-08-20T14:42:36.748Z,28.62
2022-08-20T14:45:06.551Z,27.67
2022-08-20T14:47:36.498Z,29.15
2022-08-20T14:50:10.375Z,27.23
2022-08-20T14:52:38.007Z,24.99
2022-08-20T14:55:07.862Z,25.11
2022-08-20T14:57:35.128Z,25.21
2022-08-20T15:00:02.156Z,24.83
2022-08-20T15:02:29.198Z,24.64
2022-08-20T15:04:56.123Z,23.93
2022-08-20T15:07:29.471Z,23.72
2022-08-20T15:09:57.576Z,26.06
2022-08-20T15:12:24.844Z,27.03
2022-08-20T15:14:51.631Z,25.72
2022-08-20T15:17:24.074Z,26.39
2022-08-20T15:19:51.449Z,27.59
2022-08-20T15:22:19.424Z,26.64
2022-08-20T15:24:46.375Z,27.95
2022-08-20T15:27:22.612Z,28.52
2022-08-20T15:29:51.537Z,28.11
2022-08-20T15:32:19.791Z,26.17
2022-08-20T15:34:47.673Z,28.15
2022-08-20T15:37:17.942Z,27.86
2022-08-20T15:39:45.497Z,27.66
2022-08-20T15:42:13.229Z,27.75
2022-08-20T15:44:41.494Z,24.41
2022-08-20T15:47:14.316Z,24.42
2022-08-20T15:49:41.840Z,24.79
2022-08-20T15:52:08.934Z,22.78
2022-08-20T15:54:36.620Z,24.89
2022-08-20T15:57:12.017Z,21.81
2022-08-20T15:59:57.203Z,23.38
2022-08-20T16:03:01.215Z,22.14
2022-08-20T16:05:37.059Z,21.37
2022-08-20T16:08:21.987Z,21.51
2022-08-20T16:11:04.002Z,21.28
2022-08-20T16:13:46.127Z,23.80
2022-08-20T16:16:43.401Z,22.60
2022-08-20T16:19:18.472Z,22.55
2022-08-20T16:21:48.095Z,24.08
2022-08-20T16:24:15.818Z,21.90
2022-08-20T16:27:07.359Z,23.65
2022-08-20T16:29:45.679Z,24.72
2022-08-20T16:32:31.037Z,24.31
2022-08-20T16:35:07.877Z,23.25
2022-08-20T16:37:41.440Z,23.96
2022-08-20T16:40:35.339Z,24.08
2022-08-20T16:43:08.442Z,26.01
2022-08-20T16:45:50.122Z,23.69
2022-08-20T16:48:18.683Z,25.69
2022-08-20T16:51:15.944Z,24.28
2022-08-20T16:53:43.052Z,25.84
2022-08-20T16:56:09.823Z,25.40
2022-08-20T16:58:36.582Z,25.80
2022-08-20T17:01:06.233Z,26.06
2022-08-20T17:03:39.834Z,26.29
2022-08-20T17:06:21.689Z,26.82
2022-08-20T17:08:51.344Z,26.31
2022-08-20T17:11:33.833Z,25.36
2022-08-20T17:14:19.659Z,25.60
2022-08-20T17:16:49.775Z,25.74
2022-08-20T17:19:28.761Z,26.55
2022-08-20T17:22:07.523Z,26.25
2022-08-20T17:24:35.338Z,25.60
2022-08-20T17:27:10.401Z,26.36
2022-08-20T17:29:53.106Z,25.88
2022-08-20T17:32:26.960Z,25.86
2022-08-20T17:34:58.018Z,25.62
2022-08-20T17:37:33.376Z,26.07
2022-08-20T17:40:09.446Z,26.57
2022-08-20T17:42:48.379Z,25.60
2022-08-20T17:45:24.250Z,25.23
2022-08-20T17:47:52.926Z,25.86
2022-08-20T17:50:24.754Z,25.72
2022-08-20T17:52:56.341Z,25.20
2022-08-20T17:55:23.588Z,25.49
2022-08-20T17:57:56.309Z,24.97
2022-08-20T18:00:28.496Z,25.77
2022-08-20T18:03:00.824Z,25.87
2022-08-20T18:05:32.456Z,24.93
2022-08-20T18:08:08.643Z,25.12
2022-08-20T18:10:47.502Z,24.70
2022-08-20T18:13:23.990Z,23.65
2022-08-20T18:15:57.061Z,23.39
2022-08-20T18:18:56.410Z,23.11
2022-08-20T18:21:50.400Z,25.32
2022-08-20T18:24:29.931Z,25.28
2022-08-20T18:27:02.469Z,23.96
2022-08-20T18:29:37.322Z,23.52
2022-08-20T18:32:35.503Z,23.77
2022-08-20T18:35:18.972Z,24.57
2022-08-20T18:37:45.955Z,25.15
2022-08-20T18:40:29.341Z,24.97
2022-08-20T18:42:59.396Z,25.44
2022-08-20T18:45:36.461Z,26.33
2022-08-20T18:48:05.446Z,25.15
2022-08-20T18:50:46.387Z,26.14
2022-08-20T18:53:13.273Z,25.82
2022-08-20T18:55:43.767Z,23.16
2022-08-20T18:58:48.806Z,25.00
2022-08-20T19:01:16.186Z,25.49
2022-08-20T19:03:47.633Z,25.42
2022-08-20T19:06:33.259Z,24.93
2022-08-20T19:09:33.790Z,26.27
2022-08-20T19:12:06.486Z,24.90
2022-08-20T19:15:00.865Z,25.70
2022-08-20T19:17:54.025Z,26.10
2022-08-20T19:20:24.975Z,24.18
2022-08-20T19:22:54.086Z,24.86
2022-08-20T19:25:50.697Z,25.26
2022-08-20T19:28:45.215Z,25.68
2022-08-20T19:31:16.053Z,24.96
2022-08-20T19:33:47.191Z,25.56
2022-08-20T19:36:21.082Z,24.69
2022-08-20T19:38:52.922Z,24.81
2022-08-20T19:41:31.440Z,24.85
2022-08-20T19:44:00.330Z,25.53
2022-08-20T19:46:38.356Z,25.55
2022-08-20T19:49:27.730Z,25.05
2022-08-20T19:52:20.905Z,23.67
2022-08-20T19:54:53.708Z,24.99
2022-08-20T19:57:23.094Z,24.75
2022-08-20T19:59:57.486Z,25.76
2022-08-20T20:02:28.320Z,25.29
2022-08-20T20:04:57.832Z,24.03
2022-08-20T20:07:34.466Z,23.53
2022-08-20T20:10:03.474Z,24.81
2022-08-20T20:12:33.159Z,25.03
2022-08-20T20:15:00.690Z,24.06
2022-08-20T20:17:32.966Z,25.09
2022-08-20T20:20:14.646Z,24.22
2022-08-20T20:22:56.852Z,24.61
2022-08-20T20:25:38.597Z,23.96
2022-08-20T20:28:13.507Z,24.53
2022-08-20T20:30:41.268Z,22.59
2022-08-20T20:33:16.647Z,22.88
2022-08-20T20:35:44.344Z,23.07
2022-08-20T20:38:24.118Z,23.91
2022-08-20T20:40:54.850Z,22.03
2022-08-20T20:43:35.499Z,23.30
2022-08-20T20:46:29.007Z,23.02
2022-08-20T20:49:22.207Z,23.47
2022-08-20T20:51:56.688Z,23.65
2022-08-20T20:54:42.259Z,24.10
2022-08-20T20:57:38.082Z,22.58
2022-08-20T21:00:11.729Z,21.74
2022-08-20T21:02:38.728Z,23.77
2022-08-20T21:05:06.507Z,25.23
2022-08-20T21:07:33.369Z,22.58
2022-08-20T21:10:00.203Z,23.88
2022-08-20T21:12:26.943Z,23.67
2022-08-20T21:14:54.388Z,22.56
2022-08-20T21:17:23.067Z,24.28
2022-08-20T21:19:51.244Z,23.43
2022-08-20T21:22:19.485Z,24.70
2022-08-20T21:24:48.589Z,23.65
2022-08-20T21:27:15.973Z,24.78
2022-08-20T21:29:42.790Z,24.16
2022-08-20T21:32:12.356Z,24.84
2022-08-20T21:34:40.258Z,25.33
2022-08-20T21:37:07.181Z,25.76
2022-08-20T21:39:34.115Z,24.35
2022-08-20T21:42:03.764Z,24.39
2022-08-20T21:44:32.294Z,23.54
2022-08-20T21:47:00.200Z,21.44
2022-08-20T21:49:29.138Z,23.93
2022-08-20T21:51:56.331Z,23.60
2022-08-20T21:54:24.374Z,23.91
2022-08-20T21:56:56.702Z,23.73
2022-08-20T21:59:25.279Z,24.30
2022-08-20T22:01:52.828Z,23.10
2022-08-20T22:04:19.754Z,22.37
2022-08-20T22:06:47.306Z,22.41
2022-08-20T22:09:15.084Z,24.46
2022-08-20T22:11:42.025Z,24.92
2022-08-20T22:14:10.794Z,23.36
2022-08-20T22:16:37.627Z,23.76
2022-08-20T22:19:13.989Z,23.43
2022-08-20T22:21:42.843Z,24.58
2022-08-20T22:24:11.581Z,24.43
2022-08-20T22:26:41.359Z,24.45
2022-08-20T22:29:10.804Z,23.40
2022-08-20T22:31:40.895Z,22.76
2022-08-20T22:34:10.868Z,20.52
2022-08-20T22:36:37.794Z,21.60
2022-08-20T22:39:05.734Z,20.11
2022-08-20T22:41:32.954Z,22.58
2022-08-20T22:43:59.795Z,21.27
2022-08-20T22:46:30.722Z,24.05
2022-08-20T22:48:57.959Z,22.61
2022-08-20T22:51:30.166Z,24.05
2022-08-20T22:53:58.433Z,24.52
2022-08-20T22:56:26.303Z,23.65
2022-08-20T22:58:53.243Z,23.31
2022-08-20T23:01:21.144Z,22.84
2022-08-20T23:03:48.037Z,22.78
2022-08-20T23:06:14.883Z,23.23
2022-08-20T23:08:42.435Z,23.23
2022-08-20T23:11:09.443Z,23.33
2022-08-20T23:13:37.469Z,23.27
2022-08-20T23:16:06.871Z,22.32
2022-08-20T23:18:33.803Z,23.25
2022-08-20T23:21:01.087Z,23.12
2022-08-20T23:23:28.001Z,22.71
2022-08-20T23:25:55.438Z,21.07
2022-08-20T23:28:25.433Z,21.30
2022-08-20T23:30:52.794Z,23.25
2022-08-20T23:33:19.795Z,19.38
2022-08-20T23:35:47.158Z,20.69
2022-08-20T23:38:14.573Z,21.30
2022-08-20T23:40:43.152Z,22.52
2022-08-20T23:43:10.204Z,21.81
2022-08-20T23:45:39.732Z,20.75
2022-08-20T23:48:07.884Z,22.49
2022-08-20T23:50:35.280Z,21.57
2022-08-20T23:53:02.349Z,23.84
2022-08-20T23:55:29.352Z,22.71
2022-08-20T23:57:56.596Z,21.79
